Time;durP1;ratioP1;P1;durP2;ratioP2;P2;SDS_P1;SDS_P2;PMS_P1;PMS_P2;Temp;Humidity;BMP_temperature;BMP_pressure;BME280_temperature;BME280_humidity;BME280_pressure;Samples;Min_cycle;Max_cycle;Signal;HPM_P1;HPM_P2
2022/03/05 00:00:30;;;;;;;20.98;6.50;;;3.40;94.80;;;3.04;59.92;101428.41;5170490;28;20113;-81
2022/03/05 00:03:02;;;;;;;25.25;7.57;;;3.40;95.30;;;3.02;60.08;101427.41;5170768;28;20170;-83
2022/03/05 00:05:34;;;;;;;25.47;7.47;;;3.40;95.40;;;2.95;60.43;101431.22;5174853;23;1125086;-89
2022/03/05 00:08:07;;;;;;;22.83;6.38;;;3.40;95.80;;;2.87;61.11;101418.53;5208147;28;20056;-87
2022/03/05 00:10:41;;;;;;;22.77;7.40;;;3.30;96.20;;;2.94;60.72;101432.00;5212856;28;20140;-90
2022/03/05 00:13:13;;;;;;;22.33;7.25;;;3.30;96.20;;;2.98;60.78;101443.41;5203014;28;20048;-89
2022/03/05 00:15:47;;;;;;;18.73;5.63;;;3.30;96.50;;;2.90;61.55;101440.25;5189525;28;20057;-90
2022/03/05 00:18:19;;;;;;;24.92;7.57;;;3.30;96.80;;;2.93;61.13;101445.66;5196841;28;20046;-89
2022/03/05 00:20:51;;;;;;;27.50;7.53;;;3.30;97.10;;;2.94;61.39;101436.25;5189006;28;20517;-88
2022/03/05 00:23:25;;;;;;;30.25;7.60;;;3.20;97.10;;;2.83;62.16;101435.44;5199410;28;20050;-89
2022/03/05 00:25:59;;;;;;;27.30;8.63;;;3.20;97.40;;;2.82;61.69;101437.91;5201816;28;20077;-89
2022/03/05 00:28:31;;;;;;;28.38;7.60;;;3.20;97.40;;;2.81;62.00;101436.13;5205603;28;20051;-89
2022/03/05 00:31:03;;;;;;;29.10;8.20;;;3.20;97.70;;;2.83;61.59;101448.31;5206725;28;20060;-88
2022/03/05 00:33:35;;;;;;;25.77;8.18;;;3.10;97.70;;;2.81;62.21;101444.72;5206995;28;20053;-88
2022/03/05 00:36:08;;;;;;;28.17;7.63;;;3.10;97.90;;;2.75;62.40;101433.97;5206951;28;20049;-88
2022/03/05 00:38:40;;;;;;;25.25;8.00;;;3.10;98.10;;;2.73;62.70;101446.69;5206684;28;20053;-88
2022/03/05 00:41:13;;;;;;;26.73;6.88;;;3.10;98.40;;;2.61;62.92;101426.88;5207286;28;20049;-89
2022/03/05 00:43:45;;;;;;;30.58;8.38;;;3.00;98.60;;;2.60;63.01;101437.91;5207127;28;20046;-90
2022/03/05 00:46:17;;;;;;;24.17;7.13;;;3.00;98.80;;;2.52;63.18;101432.19;5206556;28;20052;-90
2022/03/05 00:48:49;;;;;;;27.83;7.55;;;3.00;98.80;;;2.46;63.95;101429.16;5206624;28;20056;-89
2022/03/05 00:51:21;;;;;;;25.13;8.65;;;2.90;99.10;;;2.43;63.98;101436.66;5206656;28;20487;-88
2022/03/05 00:53:53;;;;;;;29.75;8.07;;;2.90;99.30;;;2.39;63.88;101445.78;5206446;28;20057;-90
2022/03/05 00:56:27;;;;;;;28.55;9.10;;;2.80;99.70;;;2.39;63.98;101438.06;5206364;28;20423;-89
2022/03/05 00:58:59;;;;;;;20.50;7.22;;;2.80;99.60;;;2.40;64.11;101441.53;5198020;28;20049;-88
2022/03/05 01:01:31;;;;;;;31.17;8.63;;;2.80;99.80;;;2.37;64.58;101444.78;5207001;28;20050;-89
2022/03/05 01:04:03;;;;;;;26.63;8.90;;;2.80;99.90;;;2.37;64.66;101455.06;5206708;28;20045;-89
2022/03/05 01:06:35;;;;;;;32.03;8.73;;;2.70;99.90;;;2.34;64.84;101439.38;5206473;28;20054;-90
2022/03/05 01:09:07;;;;;;;28.50;7.93;;;2.70;99.90;;;2.34;64.92;101433.34;5215957;28;20499;-88
2022/03/05 01:11:41;;;;;;;26.98;7.13;;;2.70;99.90;;;2.32;65.13;101440.94;5225773;28;20495;-89
2022/03/05 01:14:13;;;;;;;30.17;7.80;;;2.70;99.90;;;2.22;64.89;101432.38;5210425;28;20045;-89
2022/03/05 01:16:45;;;;;;;31.00;9.63;;;2.70;99.90;;;2.29;64.99;101435.59;5210609;28;20136;-87
2022/03/05 01:19:17;;;;;;;23.88;7.78;;;2.60;99.90;;;2.26;65.43;101437.00;5210287;28;20050;-88
2022/03/05 01:21:49;;;;;;;29.10;8.60;;;2.60;99.90;;;2.25;65.77;101428.38;5210701;28;20060;-89
2022/03/05 01:24:21;;;;;;;26.02;8.20;;;2.60;99.90;;;2.24;65.85;101436.88;5210457;28;20060;-89
2022/03/05 01:26:54;;;;;;;30.42;8.32;;;2.60;99.90;;;2.18;65.86;101426.13;5209956;28;20041;-89
2022/03/05 01:29:26;;;;;;;34.92;10.15;;;2.50;99.90;;;2.15;65.64;101428.44;5210176;28;20411;-89
2022/03/05 01:31:58;;;;;;;36.20;8.75;;;2.50;99.90;;;2.11;65.88;101423.84;5210534;28;20055;-89
2022/03/05 01:34:30;;;;;;;28.42;8.25;;;2.50;99.90;;;2.09;66.19;101416.03;5210286;28;20048;-87
2022/03/05 01:37:03;;;;;;;32.28;9.02;;;2.50;99.90;;;2.08;66.32;101418.44;5210827;28;20060;-88
2022/03/05 01:39:35;;;;;;;30.65;8.38;;;2.40;99.90;;;2.05;66.39;101418.22;5210422;28;20049;-89
2022/03/05 01:42:09;;;;;;;29.98;8.95;;;2.40;99.90;;;2.01;67.04;101408.47;5210421;28;20052;-89
2022/03/05 01:44:41;;;;;;;30.38;8.07;;;2.40;99.90;;;2.02;66.32;101410.25;5209978;28;20073;-89
2022/03/05 01:47:13;;;;;;;26.35;7.95;;;2.40;99.90;;;2.02;66.69;101402.53;5210183;28;20049;-88
2022/03/05 01:49:45;;;;;;;32.95;9.55;;;2.40;99.90;;;1.99;66.62;101412.59;5210659;28;20410;-88
2022/03/05 01:52:17;;;;;;;32.28;8.82;;;2.40;99.90;;;1.99;67.11;101407.44;5210006;28;20079;-88
2022/03/05 01:54:49;;;;;;;30.98;9.38;;;2.30;99.90;;;1.78;67.55;101387.00;5209450;28;20056;-89
2022/03/05 01:57:23;;;;;;;35.17;8.40;;;2.30;99.90;;;1.89;67.32;101409.31;5209943;28;20046;-88
2022/03/05 01:59:55;;;;;;;30.65;8.80;;;2.30;99.90;;;1.86;67.55;101411.63;5209892;28;20045;-89
2022/03/05 02:02:27;;;;;;;32.67;8.88;;;2.30;99.90;;;1.77;67.46;101400.63;5209905;28;20495;-89
2022/03/05 02:04:59;;;;;;;28.05;7.43;;;2.20;99.90;;;1.72;67.97;101412.22;5209852;28;20495;-89
2022/03/05 02:07:32;;;;;;;34.45;9.00;;;2.20;99.90;;;1.78;68.07;101420.41;5209956;28;20041;-88
2022/03/05 02:10:05;;;;;;;28.77;8.13;;;2.20;99.90;;;1.82;67.80;101414.72;5209439;28;20049;-88
2022/03/05 02:12:40;;;;;;;29.42;8.70;;;2.20;99.90;;;1.78;68.12;101404.97;5209868;28;20056;-88
2022/03/05 02:15:12;;;;;;;29.35;8.55;;;2.20;99.90;;;1.75;68.01;101402.16;5209321;28;20056;-89
2022/03/05 02:17:45;;;;;;;30.10;8.80;;;2.10;99.90;;;1.72;68.83;101404.50;5209964;28;20049;-88
2022/03/05 02:20:17;;;;;;;35.67;9.40;;;2.10;99.90;;;1.69;68.63;101413.63;5209882;28;20046;-89
2022/03/05 02:22:50;;;;;;;32.78;8.57;;;2.10;99.90;;;1.68;68.72;101409.25;5208481;28;20102;-90
2022/03/05 02:25:22;;;;;;;33.75;9.20;;;2.10;99.90;;;1.65;68.54;101412.50;5209326;28;20400;-88
2022/03/05 02:27:57;;;;;;;35.28;9.20;;;2.10;99.90;;;1.59;69.46;101407.75;5209365;28;20076;-89
2022/03/05 02:30:29;;;;;;;32.72;9.18;;;2.00;99.90;;;1.49;69.19;101400.06;5209100;28;20054;-88
2022/03/05 02:33:01;;;;;;;34.58;9.15;;;2.00;99.90;;;1.48;69.36;101405.09;5209308;28;20057;-88
2022/03/05 02:35:33;;;;;;;40.90;8.80;;;2.00;99.90;;;1.44;70.18;101403.06;5209376;28;20059;-88
2022/03/05 02:38:06;;;;;;;30.08;8.65;;;2.00;99.90;;;1.35;70.52;101396.41;5209412;28;20504;-89
2022/03/05 02:40:38;;;;;;;34.50;7.82;;;1.90;99.90;;;1.36;70.46;101393.03;5209585;28;20050;-88
2022/03/05 02:43:11;;;;;;;35.80;8.70;;;1.90;99.90;;;1.40;69.99;101396.78;5209680;28;20051;-87
2022/03/05 02:45:44;;;;;;;32.63;9.82;;;1.80;99.90;;;1.37;70.08;101391.41;5209411;28;20491;-87
2022/03/05 02:48:17;;;;;;;30.02;8.70;;;1.80;99.90;;;1.35;70.48;101392.94;5209544;28;20084;-88
2022/03/05 02:50:51;;;;;;;36.72;9.32;;;1.80;99.90;;;1.31;70.26;101394.38;5209618;28;20049;-88
2022/03/05 02:53:24;;;;;;;37.15;8.85;;;1.80;99.90;;;1.35;70.23;101398.06;5209994;28;20079;-88
2022/03/05 02:55:56;;;;;;;29.90;8.43;;;1.80;99.90;;;1.24;70.52;101379.25;5209720;28;20048;-89
2022/03/05 02:58:28;;;;;;;30.65;8.88;;;1.80;99.90;;;1.37;70.01;101399.13;5209242;28;20049;-88
2022/03/05 03:01:00;;;;;;;35.05;8.20;;;1.80;99.90;;;1.38;70.55;101403.47;5208533;28;20075;-88
2022/03/05 03:03:32;;;;;;;33.50;8.95;;;1.80;99.90;;;1.35;70.53;101398.97;5208910;28;20504;-88
2022/03/05 03:06:05;;;;;;;29.80;7.50;;;1.80;99.90;;;1.35;70.36;101404.09;5209073;28;20068;-88
2022/03/05 03:08:39;;;;;;;28.50;7.85;;;1.80;99.90;;;1.32;69.84;101388.44;5209110;28;20525;-88
2022/03/05 03:11:11;;;;;;;29.23;8.10;;;1.80;99.90;;;1.34;70.09;101392.03;5208879;28;20050;-87
2022/03/05 03:13:43;;;;;;;27.55;8.98;;;1.80;99.90;;;1.21;71.01;101384.13;5209153;28;20419;-88
2022/03/05 03:16:15;;;;;;;29.30;8.15;;;1.80;99.90;;;1.22;71.02;101395.28;5209216;28;20049;-88
2022/03/05 03:18:47;;;;;;;29.40;8.10;;;1.70;99.90;;;1.23;70.55;101386.78;5208632;28;20127;-87
2022/03/05 03:21:19;;;;;;;28.08;7.55;;;1.70;99.90;;;1.08;71.38;101365.91;5208955;28;20053;-88
2022/03/05 03:23:52;;;;;;;32.33;8.18;;;1.70;99.90;;;1.17;71.61;101386.28;5208752;28;20052;-87
2022/03/05 03:26:25;;;;;;;28.08;8.88;;;1.70;99.90;;;1.13;71.27;101382.59;5208770;28;20063;-89
2022/03/05 03:28:56;;;;;;;27.55;8.32;;;1.70;99.90;;;1.21;71.48;101388.34;5212803;28;20077;-88
2022/03/05 03:31:28;;;;;;;27.50;8.38;;;1.70;99.90;;;1.23;71.37;101386.78;5209516;28;20049;-89
2022/03/05 03:34:00;;;;;;;26.73;7.90;;;1.70;99.90;;;1.21;71.45;101394.38;5208120;28;20060;-87
2022/03/05 03:36:32;;;;;;;28.08;8.05;;;1.70;99.90;;;1.18;71.26;101382.97;5209114;28;20057;-88
2022/03/05 03:39:06;;;;;;;35.67;7.53;;;1.70;99.90;;;1.20;70.80;101387.47;5213553;28;20071;-87
2022/03/05 03:41:38;;;;;;;31.70;8.48;;;1.70;99.90;;;1.13;71.33;101387.72;5213065;28;20109;-87
2022/03/05 03:44:11;;;;;;;30.10;8.60;;;1.60;99.90;;;1.08;71.13;101389.03;5210830;28;20394;-87
2022/03/05 03:46:43;;;;;;;26.52;7.70;;;1.60;99.90;;;1.04;71.64;101380.19;5208748;28;20049;-87
2022/03/05 03:49:15;;;;;;;27.08;8.60;;;1.60;99.90;;;0.92;71.66;101368.00;5208962;28;20052;-88
2022/03/05 03:51:47;;;;;;;27.50;7.35;;;1.50;99.90;;;0.99;72.11;101373.78;5211042;28;20050;-87
2022/03/05 03:54:20;;;;;;;29.02;8.27;;;1.50;99.90;;;1.02;71.88;101391.09;5223043;28;20060;-89
2022/03/05 03:56:52;;;;;;;31.38;7.75;;;1.50;99.90;;;0.95;71.72;101391.34;5212343;28;20045;-89
2022/03/05 03:59:25;;;;;;;29.98;7.72;;;1.50;99.90;;;0.87;72.10;101379.56;5208310;28;20053;-89
2022/03/05 04:01:57;;;;;;;31.27;8.60;;;1.50;99.90;;;0.98;72.13;101392.53;5209750;28;20053;-89
2022/03/05 04:04:29;;;;;;;30.92;9.07;;;1.50;99.90;;;0.85;72.29;101381.09;5218710;28;20060;-91
2022/03/05 04:09:52;;;;;;;29.67;8.43;;;1.50;99.90;;;0.89;72.69;101404.56;5230840;28;20132;-89
2022/03/05 04:12:24;;;;;;;30.92;9.65;;;1.40;99.90;;;0.84;72.29;101407.53;5227346;28;20071;-89
2022/03/05 04:14:56;;;;;;;32.00;9.35;;;1.40;99.90;;;0.79;72.62;101402.03;5226783;28;20140;-90
2022/03/05 04:17:28;;;;;;;32.67;9.20;;;1.40;99.90;;;0.84;72.97;101404.97;5227744;28;20085;-91
2022/03/05 04:20:00;;;;;;;29.20;7.30;;;1.40;99.90;;;0.88;72.81;101407.03;5228658;28;20080;-90
2022/03/05 04:22:33;;;;;;;27.90;6.65;;;1.40;99.90;;;0.86;72.38;101412.03;5228618;28;20053;-90
2022/03/05 04:25:08;;;;;;;27.10;7.72;;;1.30;99.90;;;0.85;72.21;101401.63;5209804;28;20049;-89
2022/03/05 04:27:40;;;;;;;29.83;7.55;;;1.30;99.90;;;0.89;72.45;101409.72;5207334;28;20045;-89
2022/03/05 04:30:12;;;;;;;35.45;9.40;;;1.40;99.90;;;0.92;72.58;101411.66;5207143;28;20051;-89
2022/03/05 04:32:44;;;;;;;28.58;8.85;;;1.40;99.90;;;0.89;72.16;101401.13;5207330;28;20053;-88
2022/03/05 04:35:17;;;;;;;29.15;8.57;;;1.40;99.90;;;0.85;72.75;101404.19;5207031;28;20053;-89
2022/03/05 04:37:51;;;;;;;32.33;9.13;;;1.30;99.90;;;0.85;72.67;101420.50;5206963;28;20510;-88
2022/03/05 04:40:24;;;;;;;32.67;8.15;;;1.40;99.90;;;0.83;72.70;101416.91;5207640;28;20143;-87
2022/03/05 04:42:57;;;;;;;25.40;6.80;;;1.30;99.90;;;0.84;72.40;101412.66;5206957;28;20059;-89
2022/03/05 04:45:29;;;;;;;28.92;8.68;;;1.30;99.90;;;0.81;72.54;101416.78;5209160;28;20049;-88
2022/03/05 04:48:01;;;;;;;34.22;7.88;;;1.30;99.90;;;0.77;73.04;101417.28;5211335;28;20441;-89
2022/03/05 04:50:34;;;;;;;28.30;8.02;;;1.30;99.90;;;0.74;72.95;101422.19;5211894;28;20061;-89
2022/03/05 04:53:06;;;;;;;28.17;7.05;;;1.30;99.90;;;0.64;72.97;101417.03;5211289;28;20056;-88
2022/03/05 04:55:39;;;;;;;28.90;8.05;;;1.20;99.90;;;0.75;73.09;101426.53;5211405;28;20049;-87
2022/03/05 04:58:11;;;;;;;28.40;9.30;;;1.20;99.90;;;0.73;72.89;101433.22;5211297;28;20068;-89
2022/03/05 05:00:43;;;;;;;33.33;9.02;;;1.20;99.90;;;0.74;73.17;101428.97;5211571;28;20046;-90
2022/03/05 05:03:15;;;;;;;28.25;8.50;;;1.20;99.90;;;0.68;72.94;101426.78;5211212;28;20049;-88
2022/03/05 05:05:47;;;;;;;33.33;8.23;;;1.20;99.90;;;0.70;73.26;101427.81;5211384;28;20061;-87
2022/03/05 05:08:19;;;;;;;25.02;7.63;;;1.20;99.90;;;0.70;73.14;101440.63;5211429;28;20127;-88
2022/03/05 05:10:52;;;;;;;31.00;8.25;;;1.20;99.90;;;0.65;73.43;101444.50;5211675;28;20053;-87
2022/03/05 05:13:24;;;;;;;32.40;7.85;;;1.20;99.90;;;0.68;73.44;101439.63;5211853;28;20049;-87
2022/03/05 05:15:57;;;;;;;28.23;7.40;;;1.20;99.90;;;0.70;72.85;101444.88;5211690;28;20057;-88
2022/03/05 05:18:29;;;;;;;29.52;7.32;;;1.20;99.90;;;0.63;73.29;101446.03;5224653;28;20049;-90
2022/03/05 05:21:01;;;;;;;28.67;7.90;;;1.20;99.90;;;0.49;73.36;101434.59;5227689;28;20117;-90
2022/03/05 05:23:33;;;;;;;28.58;8.07;;;1.20;99.90;;;0.48;73.88;101429.34;5227303;28;20113;-87
2022/03/05 05:26:06;;;;;;;28.25;8.57;;;1.10;99.90;;;0.57;73.46;101445.50;5216514;28;20441;-89
2022/03/05 05:28:38;;;;;;;26.70;7.60;;;1.10;99.90;;;0.64;73.61;101441.78;5210341;28;20103;-89
2022/03/05 05:31:10;;;;;;;28.88;8.48;;;1.20;99.90;;;0.64;73.70;101440.13;5211058;28;20049;-88
2022/03/05 05:33:44;;;;;;;27.90;7.75;;;1.10;99.90;;;0.63;73.51;101440.00;5210610;28;20049;-90
2022/03/05 05:36:17;;;;;;;27.20;8.10;;;1.10;99.90;;;0.62;73.84;101449.38;5211176;28;20080;-90
2022/03/05 05:38:49;;;;;;;29.67;7.38;;;1.10;99.90;;;0.60;73.59;101440.66;5211259;28;20053;-90
2022/03/05 05:41:22;;;;;;;27.85;6.55;;;1.10;99.90;;;0.58;73.62;101433.56;5211268;28;20053;-89
2022/03/05 05:43:54;;;;;;;32.63;7.55;;;1.10;99.90;;;0.56;74.03;101441.16;5210836;28;20527;-89
2022/03/05 05:46:26;;;;;;;35.97;9.02;;;1.10;99.90;;;0.57;73.70;101448.06;5210570;28;20049;-88
2022/03/05 05:48:59;;;;;;;26.08;7.90;;;1.10;99.90;;;0.57;73.82;101449.75;5210121;28;20046;-89
2022/03/05 05:51:32;;;;;;;25.58;7.25;;;1.10;99.90;;;0.54;74.28;101450.41;5210048;28;20049;-89
2022/03/05 05:54:04;;;;;;;30.50;7.72;;;1.10;99.90;;;0.54;73.94;101445.25;5217140;28;20132;-90
2022/03/05 05:56:37;;;;;;;33.08;8.45;;;1.10;99.90;;;0.57;73.93;101448.06;5211322;28;20080;-89
2022/03/05 05:59:09;;;;;;;35.58;8.13;;;1.10;99.90;;;0.60;74.02;101445.78;5211091;28;20056;-89
2022/03/05 06:01:41;;;;;;;29.45;7.78;;;1.10;99.90;;;0.54;73.77;101424.75;5211014;28;20056;-88
2022/03/05 06:04:13;;;;;;;28.63;7.43;;;1.10;99.90;;;0.60;73.57;101450.91;5211972;28;20050;-89
2022/03/05 06:06:45;;;;;;;27.58;6.85;;;1.10;99.90;;;0.60;73.64;101440.66;5288006;23;20061;-73
2022/03/05 06:09:17;;;;;;;28.05;7.72;;;1.10;99.90;;;0.63;73.67;101445.13;5192912;28;20480;-74
2022/03/05 06:11:51;;;;;;;27.92;8.23;;;1.10;99.90;;;0.69;73.71;101450.78;5208147;28;20406;-73
2022/03/05 06:14:23;;;;;;;27.35;7.75;;;1.20;99.90;;;0.69;73.86;101454.25;5207846;28;20060;-74
2022/03/05 06:16:55;;;;;;;28.20;9.10;;;1.20;99.90;;;0.71;73.64;101454.38;5187264;28;20406;-73
2022/03/05 06:19:27;;;;;;;26.58;7.60;;;1.20;99.90;;;0.68;73.86;101455.03;5186889;28;20049;-74
2022/03/05 06:21:59;;;;;;;25.27;6.72;;;1.20;99.90;;;0.69;73.38;101456.81;5187280;28;20065;-73
2022/03/05 06:24:31;;;;;;;26.27;6.70;;;1.20;99.90;;;0.73;73.35;101456.31;5186866;28;20046;-73
2022/03/05 06:27:05;;;;;;;23.90;6.82;;;1.20;99.90;;;0.77;73.44;101453.22;5186145;28;20050;-74
2022/03/05 06:29:37;;;;;;;23.27;6.03;;;1.30;99.90;;;0.79;73.56;101456.84;5186793;28;20057;-74
2022/03/05 06:32:10;;;;;;;25.35;8.45;;;1.30;99.90;;;0.86;73.22;101459.91;5187001;28;20046;-73
2022/03/05 06:34:42;;;;;;;23.75;7.15;;;1.30;99.90;;;0.90;73.13;101459.38;5186808;28;20081;-73
2022/03/05 06:37:14;;;;;;;26.00;7.53;;;1.40;99.90;;;0.99;72.59;101460.16;5186468;28;20133;-73
2022/03/05 06:39:46;;;;;;;26.80;8.88;;;1.40;99.90;;;1.25;72.02;101462.31;5186242;28;20271;-74
2022/03/05 06:42:19;;;;;;;25.92;6.45;;;1.60;99.90;;;1.53;71.42;101465.47;5186421;28;20136;-74
2022/03/05 06:44:51;;;;;;;26.27;7.15;;;1.80;99.90;;;1.88;70.55;101461.47;5186130;28;20546;-73
2022/03/05 06:47:23;;;;;;;28.70;7.55;;;2.00;99.90;;;2.23;69.05;101453.09;5185901;28;20050;-73
2022/03/05 06:49:55;;;;;;;26.88;9.18;;;2.30;99.90;;;2.48;67.45;101468.78;5186251;28;20058;-74
2022/03/05 06:52:27;;;;;;;23.27;7.50;;;2.50;99.90;;;2.74;66.83;101457.91;5186717;28;20056;-73
2022/03/05 06:54:59;;;;;;;26.58;6.50;;;2.80;99.90;;;2.88;65.27;101470.16;5186488;28;20061;-74
2022/03/05 06:57:34;;;;;;;25.25;7.75;;;2.90;99.90;;;3.18;65.04;101460.34;5186089;28;20402;-75
2022/03/05 07:00:08;;;;;;;24.70;7.32;;;3.10;99.90;;;3.80;63.56;101464.09;5186390;28;20463;-74
2022/03/05 07:02:40;;;;;;;30.73;7.10;;;3.50;99.90;;;4.81;60.99;101461.75;5185889;28;20060;-74
2022/03/05 07:05:12;;;;;;;27.23;8.00;;;4.10;99.90;;;5.59;55.79;101471.25;5186339;28;20052;-74
2022/03/05 07:07:44;;;;;;;22.67;7.85;;;4.80;96.60;;;6.34;54.26;101473.53;5185515;28;20398;-75
2022/03/05 07:10:16;;;;;;;23.23;7.95;;;5.40;95.40;;;7.49;51.05;101481.31;5186096;28;20068;-75
2022/03/05 07:12:50;;;;;;;23.95;7.75;;;6.20;92.80;;;8.50;49.31;101480.13;5186126;28;20054;-75
2022/03/05 07:15:22;;;;;;;24.13;8.32;;;7.10;90.90;;;8.98;46.05;101483.53;5185921;28;20053;-74
2022/03/05 07:17:54;;;;;;;24.65;8.50;;;7.70;81.50;;;9.43;44.70;101478.91;5185536;28;20053;-74
2022/03/05 07:20:26;;;;;;;23.10;8.50;;;8.20;78.20;;;10.27;43.72;101475.19;5165043;28;20062;-75
2022/03/05 07:22:58;;;;;;;27.17;8.32;;;8.80;77.00;;;11.07;41.73;101480.56;5154045;28;20046;-74
2022/03/05 07:25:36;;;;;;;28.85;8.80;;;9.50;72.20;;;10.82;40.29;101481.22;5154928;28;20150;-74
2022/03/05 07:28:12;;;;;;;34.92;11.50;;;9.60;67.20;;;11.53;40.13;101481.66;5149790;28;20073;-74
2022/03/05 07:30:44;;;;;;;26.60;8.77;;;10.10;67.70;;;11.85;38.35;101485.63;5153268;28;20046;-73
2022/03/05 07:33:16;;;;;;;28.20;8.80;;;10.40;63.90;;;12.54;37.75;101480.47;5158961;28;20237;-75
2022/03/05 07:35:48;;;;;;;28.83;10.75;;;10.90;63.80;;;13.21;36.37;101488.19;5156117;28;20039;-74
2022/03/05 07:38:20;;;;;;;27.13;9.70;;;11.50;61.80;;;12.99;35.07;101481.28;5150959;28;20049;-73
2022/03/05 07:40:52;;;;;;;25.38;9.55;;;11.60;58.70;;;13.36;35.77;101487.81;5154098;28;20544;-75
2022/03/05 07:43:25;;;;;;;25.27;9.13;;;11.90;59.20;;;13.68;34.32;101489.78;5149254;28;20507;-74
2022/03/05 07:45:57;;;;;;;30.33;9.75;;;12.10;57.70;;;13.75;33.98;101491.78;5144590;28;20050;-74
2022/03/05 07:48:29;;;;;;;28.33;10.38;;;12.20;56.70;;;13.92;34.11;101491.44;5160694;28;20049;-74
2022/03/05 07:51:02;;;;;;;21.02;8.07;;;12.40;57.00;;;14.09;32.99;101500.75;5152064;28;20050;-74
2022/03/05 07:53:34;;;;;;;26.08;9.10;;;12.50;55.20;;;14.48;33.05;101497.63;5150331;28;20089;-74
2022/03/05 07:56:07;;;;;;;22.92;8.40;;;12.80;55.70;;;14.10;32.19;101503.41;5156847;28;20065;-74
2022/03/05 07:58:40;;;;;;;27.55;9.75;;;12.80;54.00;;;13.40;33.91;101500.19;5144293;28;20101;-74
2022/03/05 08:01:12;;;;;;;30.45;10.02;;;12.40;54.70;;;12.44;35.04;101500.16;5149433;28;20113;-74
2022/03/05 08:03:44;;;;;;;29.45;10.40;;;11.80;55.40;;;11.43;36.53;101498.66;5159099;28;20495;-74
2022/03/05 08:06:16;;;;;;;28.08;9.73;;;11.00;56.40;;;10.52;38.47;101509.41;5149052;28;20053;-73
2022/03/05 08:08:48;;;;;;;24.35;9.32;;;10.20;58.30;;;11.12;38.36;101505.16;5157367;28;20077;-74
2022/03/05 08:11:20;;;;;;;28.95;10.40;;;10.20;59.50;;;11.82;37.23;101512.53;5150278;28;20054;-74
2022/03/05 08:13:53;;;;;;;30.30;10.68;;;10.50;59.30;;;12.04;36.29;101510.75;5150451;28;20054;-74
2022/03/05 08:16:25;;;;;;;22.55;9.20;;;10.60;58.40;;;12.68;35.73;101511.53;5153274;28;20105;-74
2022/03/05 08:18:57;;;;;;;24.15;9.15;;;11.00;58.80;;;13.56;35.05;101512.97;5144032;28;20043;-73
2022/03/05 08:21:30;;;;;;;29.75;10.15;;;11.60;58.40;;;14.33;33.97;101509.38;5143944;28;20053;-74
2022/03/05 08:24:02;;;;;;;25.02;9.02;;;12.30;57.20;;;14.63;32.04;101512.06;5145827;28;20154;-71
2022/03/05 08:26:34;;;;;;;22.90;8.35;;;12.70;54.70;;;14.52;32.51;101507.34;5163605;28;20050;-71
2022/03/05 08:29:07;;;;;;;22.33;8.95;;;12.70;54.50;;;14.44;31.99;101516.69;5163817;28;20073;-73
2022/03/05 08:31:39;;;;;;;24.33;8.30;;;12.80;53.90;;;14.20;32.55;101520.31;5164326;28;20046;-70
2022/03/05 08:34:11;;;;;;;23.15;8.38;;;12.70;53.90;;;14.72;32.30;101521.94;5164047;28;20050;-72
2022/03/05 08:36:43;;;;;;;22.88;7.85;;;13.00;54.20;;;14.71;37.52;101521.91;5164134;28;20046;-70
2022/03/05 08:39:15;;;;;;;24.52;9.20;;;13.20;60.60;;;15.12;34.40;101517.81;5163828;28;20054;-71
2022/03/05 08:41:47;;;;;;;26.73;10.75;;;13.70;56.80;;;15.50;32.20;101523.22;5164810;28;20094;-71
2022/03/05 08:44:20;;;;;;;25.73;9.27;;;14.00;53.60;;;14.57;32.24;101521.50;5164342;28;20053;-71
2022/03/05 08:46:52;;;;;;;25.38;8.55;;;13.50;52.40;;;14.52;32.24;101520.47;5163828;28;20503;-72
2022/03/05 08:49:24;;;;;;;25.73;8.63;;;13.30;52.60;;;14.07;32.75;101526.91;5162348;28;20068;-71
2022/03/05 08:51:57;;;;;;;25.27;9.40;;;13.00;52.80;;;13.57;33.28;101531.38;5161513;28;20068;-70
2022/03/05 08:54:29;;;;;;;25.30;8.77;;;12.60;53.60;;;13.68;33.85;101522.97;5163747;28;20105;-72
2022/03/05 08:57:01;;;;;;;23.08;9.07;;;12.60;54.40;;;13.52;33.63;101516.34;5163431;28;20046;-70
2022/03/05 08:59:34;;;;;;;22.75;8.15;;;12.40;53.90;;;13.51;33.94;101527.66;5163958;28;20057;-72
2022/03/05 09:02:08;;;;;;;24.23;8.93;;;12.50;54.30;;;13.00;34.93;101517.97;5158152;28;20479;-70
2022/03/05 09:04:40;;;;;;;23.27;9.05;;;12.20;55.00;;;12.45;35.57;101520.22;5153232;28;20519;-72
2022/03/05 09:07:11;;;;;;;28.55;9.98;;;11.90;55.10;;;11.90;36.66;101518.94;5152259;28;20046;-72
2022/03/05 09:09:44;;;;;;;22.60;8.75;;;11.50;56.00;;;11.31;37.79;101517.28;5153806;28;20058;-73
2022/03/05 09:12:16;;;;;;;25.60;8.20;;;11.20;56.80;;;10.91;38.82;101514.66;5163325;28;20096;-71
2022/03/05 09:14:49;;;;;;;30.10;10.38;;;10.90;57.90;;;10.78;39.39;101515.81;5150639;28;20408;-71
2022/03/05 09:17:21;;;;;;;25.27;8.27;;;10.80;58.80;;;10.70;39.64;101517.19;5147908;28;20133;-70
2022/03/05 09:19:54;;;;;;;23.25;9.13;;;10.70;58.90;;;10.72;39.77;101512.03;5163120;28;20415;-70
2022/03/05 09:22:26;;;;;;;24.88;9.18;;;10.60;59.10;;;10.62;40.12;101508.09;5161700;28;20427;-73
2022/03/05 09:24:58;;;;;;;27.42;9.05;;;10.60;59.40;;;10.25;40.66;101514.22;5163051;28;20056;-72
2022/03/05 09:27:30;;;;;;;26.92;9.15;;;10.30;59.70;;;10.20;40.53;101514.78;5158355;28;20054;-70
2022/03/05 09:30:06;;;;;;;25.13;8.85;;;10.20;59.90;;;10.29;42.69;101515.25;5163847;28;20114;-68
2022/03/05 09:32:38;;;;;;;26.95;8.65;;;10.20;63.50;;;10.14;41.21;101520.59;5168049;28;20148;-70
2022/03/05 09:35:10;;;;;;;29.65;9.80;;;10.10;60.50;;;9.68;41.86;101518.34;5168092;28;20054;-71
2022/03/05 09:37:42;;;;;;;26.08;8.52;;;9.90;60.80;;;9.29;42.63;101522.44;5166720;28;20046;-71
2022/03/05 09:40:15;;;;;;;24.02;8.88;;;9.60;61.60;;;9.40;42.65;101512.59;5166866;28;20049;-71
2022/03/05 09:42:47;;;;;;;25.30;8.93;;;9.50;62.40;;;9.35;42.78;101509.75;5167391;28;20052;-71
2022/03/05 09:45:20;;;;;;;27.27;8.95;;;9.40;62.90;;;9.44;43.29;101514.50;5168095;28;20061;-72
2022/03/05 09:47:52;;;;;;;23.48;9.10;;;9.40;64.20;;;9.27;43.63;101508.47;5167194;28;20515;-71
2022/03/05 09:50:28;;;;;;;23.42;8.88;;;9.30;63.80;;;9.54;43.50;101508.97;5167448;28;20410;-71
2022/03/05 09:53:01;;;;;;;24.23;8.82;;;9.40;64.20;;;9.77;43.14;101512.69;5158898;28;20078;-72
2022/03/05 09:55:33;;;;;;;23.70;8.02;;;9.60;64.30;;;10.09;42.54;101503.84;5152307;28;20042;-71
2022/03/05 09:58:05;;;;;;;23.13;7.82;;;9.80;63.60;;;10.31;42.20;101503.19;5165781;28;20046;-71
2022/03/05 10:00:40;;;;;;;22.60;8.13;;;9.90;63.50;;;10.50;40.91;101510.16;5160373;28;20061;-70
2022/03/05 10:03:14;;;;;;;26.40;9.18;;;10.10;62.10;;;9.59;42.13;101517.00;5157696;28;20043;-70
2022/03/05 10:05:46;;;;;;;24.73;9.60;;;9.80;61.70;;;9.57;43.71;101505.59;5166608;28;20414;-72
2022/03/05 10:08:20;;;;;;;19.15;5.90;;;9.60;64.20;;;10.62;56.67;101502.00;5166568;28;20062;-74
2022/03/05 10:10:56;;;;;;;22.35;7.90;;;10.30;94.50;;;11.41;44.98;101502.94;5167288;28;20051;-73
2022/03/05 10:13:31;;;;;;;19.63;6.53;;;11.20;71.60;;;11.64;44.96;101496.94;5167341;28;20062;-73
2022/03/05 10:16:07;;;;;;;22.50;7.55;;;11.70;71.70;;;12.32;44.12;101492.72;5167067;28;20046;-73
2022/03/05 10:18:41;;;;;;;23.35;9.75;;;12.30;68.10;;;12.50;38.13;101487.31;5166845;28;20418;-71
2022/03/05 10:21:13;;;;;;;23.38;8.73;;;12.70;58.20;;;11.85;38.16;101490.84;5164539;28;20078;-71
2022/03/05 10:23:48;;;;;;;21.33;8.77;;;12.30;56.90;;;11.33;38.28;101484.31;5167023;28;20359;-71
2022/03/05 10:26:21;;;;;;;26.13;9.13;;;11.80;57.10;;;10.96;39.27;101492.28;5165421;28;20454;-71
2022/03/05 10:28:53;;;;;;;18.92;7.68;;;11.30;58.10;;;10.57;40.20;101487.06;5166219;28;20054;-72
2022/03/05 10:31:27;;;;;;;23.63;8.77;;;10.90;59.60;;;10.60;40.38;101487.19;5164034;28;20046;-72
2022/03/05 10:33:59;;;;;;;27.83;8.93;;;10.70;60.20;;;10.77;40.39;101490.56;5149161;28;20046;-72
2022/03/05 10:36:31;;;;;;;21.35;9.52;;;10.70;60.90;;;10.55;40.01;101487.78;5166404;28;20419;-71
2022/03/05 10:39:04;;;;;;;23.52;8.60;;;10.50;60.20;;;10.52;40.32;101485.94;5166981;28;20058;-72